sensor_id;sensor_type;location;lat;lon;timestamp;temperature;humidity
22130;DHT22;11231;50.746;4.272;2023-04-08T00:00:36;11.30;99.90
22130;DHT22;11231;50.746;4.272;2023-04-08T00:03:02;11.30;99.90
22130;DHT22;11231;50.746;4.272;2023-04-08T00:05:28;11.30;99.90
22130;DHT22;11231;50.746;4.272;2023-04-08T00:07:53;11.30;99.90
22130;DHT22;11231;50.746;4.272;2023-04-08T00:10:19;11.40;99.90
22130;DHT22;11231;50.746;4.272;2023-04-08T00:12:46;11.50;99.90
22130;DHT22;11231;50.746;4.272;2023-04-08T00:15:12;11.50;99.90
22130;DHT22;11231;50.746;4.272;2023-04-08T00:17:38;11.40;99.90
22130;DHT22;11231;50.746;4.272;2023-04-08T00:20:04;11.30;99.90
22130;DHT22;11231;50.746;4.272;2023-04-08T00:22:30;11.30;99.90
22130;DHT22;11231;50.746;4.272;2023-04-08T00:24:57;11.30;99.90
22130;DHT22;11231;50.746;4.272;2023-04-08T00:27:23;11.40;99.90
22130;DHT22;11231;50.746;4.272;2023-04-08T00:29:51;11.50;99.90
22130;DHT22;11231;50.746;4.272;2023-04-08T00:32:17;11.50;99.90
22130;DHT22;11231;50.746;4.272;2023-04-08T00:34:42;11.50;99.90
22130;DHT22;11231;50.746;4.272;2023-04-08T00:37:09;11.60;99.90
22130;DHT22;11231;50.746;4.272;2023-04-08T00:39:36;11.50;99.90
22130;DHT22;11231;50.746;4.272;2023-04-08T00:42:02;11.50;99.90
22130;DHT22;11231;50.746;4.272;2023-04-08T00:44:28;11.50;99.90
22130;DHT22;11231;50.746;4.272;2023-04-08T00:46:54;11.60;99.90
22130;DHT22;11231;50.746;4.272;2023-04-08T00:49:19;11.50;99.90
22130;DHT22;11231;50.746;4.272;2023-04-08T00:51:45;11.40;99.90
22130;DHT22;11231;50.746;4.272;2023-04-08T00:54:11;11.40;99.90
22130;DHT22;11231;50.746;4.272;2023-04-08T00:56:37;11.40;99.90
22130;DHT22;11231;50.746;4.272;2023-04-08T00:59:04;11.40;99.90
22130;DHT22;11231;50.746;4.272;2023-04-08T01:01:33;11.50;99.90
22130;DHT22;11231;50.746;4.272;2023-04-08T01:06:54;11.50;99.90
22130;DHT22;11231;50.746;4.272;2023-04-08T01:09:24;11.50;99.90
22130;DHT22;11231;50.746;4.272;2023-04-08T01:11:51;11.50;99.90
22130;DHT22;11231;50.746;4.272;2023-04-08T01:14:22;11.60;99.90
22130;DHT22;11231;50.746;4.272;2023-04-08T01:16:50;11.60;99.90
22130;DHT22;11231;50.746;4.272;2023-04-08T01:19:32;11.60;99.90
22130;DHT22;11231;50.746;4.272;2023-04-08T01:22:11;11.60;99.90
22130;DHT22;11231;50.746;4.272;2023-04-08T01:24:42;11.40;99.90
22130;DHT22;11231;50.746;4.272;2023-04-08T01:27:09;11.40;99.90
22130;DHT22;11231;50.746;4.272;2023-04-08T01:29:36;11.50;99.90
22130;DHT22;11231;50.746;4.272;2023-04-08T01:32:05;11.50;99.90
22130;DHT22;11231;50.746;4.272;2023-04-08T01:34:33;11.20;99.90
22130;DHT22;11231;50.746;4.272;2023-04-08T01:37:01;11.10;99.90
22130;DHT22;11231;50.746;4.272;2023-04-08T01:39:27;11.00;99.90
22130;DHT22;11231;50.746;4.272;2023-04-08T01:41:55;10.90;99.90
22130;DHT22;11231;50.746;4.272;2023-04-08T01:44:23;10.80;99.90
22130;DHT22;11231;50.746;4.272;2023-04-08T01:46:52;11.00;99.90
22130;DHT22;11231;50.746;4.272;2023-04-08T01:49:19;11.00;99.90
22130;DHT22;11231;50.746;4.272;2023-04-08T01:51:47;11.10;99.90
22130;DHT22;11231;50.746;4.272;2023-04-08T01:54:13;11.00;99.90
22130;DHT22;11231;50.746;4.272;2023-04-08T01:56:41;10.90;99.90
22130;DHT22;11231;50.746;4.272;2023-04-08T01:59:12;11.00;99.90
22130;DHT22;11231;50.746;4.272;2023-04-08T02:01:40;11.10;99.90
22130;DHT22;11231;50.746;4.272;2023-04-08T02:04:07;11.10;99.90
22130;DHT22;11231;50.746;4.272;2023-04-08T02:06:33;11.10;99.90
22130;DHT22;11231;50.746;4.272;2023-04-08T02:08:59;11.20;99.90
22130;DHT22;11231;50.746;4.272;2023-04-08T02:11:25;11.30;99.90
22130;DHT22;11231;50.746;4.272;2023-04-08T02:13:52;11.40;99.90
22130;DHT22;11231;50.746;4.272;2023-04-08T02:16:22;11.50;99.90
22130;DHT22;11231;50.746;4.272;2023-04-08T02:19:14;11.40;99.90
22130;DHT22;11231;50.746;4.272;2023-04-08T02:21:48;11.40;99.90
22130;DHT22;11231;50.746;4.272;2023-04-08T02:24:16;11.30;99.90
22130;DHT22;11231;50.746;4.272;2023-04-08T02:26:43;11.30;99.90
22130;DHT22;11231;50.746;4.272;2023-04-08T02:29:12;11.30;99.90
22130;DHT22;11231;50.746;4.272;2023-04-08T02:31:40;11.30;99.90
22130;DHT22;11231;50.746;4.272;2023-04-08T02:34:08;11.40;99.90
22130;DHT22;11231;50.746;4.272;2023-04-08T02:36:35;11.50;99.90
22130;DHT22;11231;50.746;4.272;2023-04-08T02:39:02;11.50;99.90
22130;DHT22;11231;50.746;4.272;2023-04-08T02:41:29;11.50;99.90
22130;DHT22;11231;50.746;4.272;2023-04-08T02:43:55;11.50;99.90
22130;DHT22;11231;50.746;4.272;2023-04-08T02:46:21;11.40;99.90
22130;DHT22;11231;50.746;4.272;2023-04-08T02:48:47;11.30;99.90
22130;DHT22;11231;50.746;4.272;2023-04-08T02:51:14;11.30;99.90
22130;DHT22;11231;50.746;4.272;2023-04-08T02:53:40;11.40;99.90
22130;DHT22;11231;50.746;4.272;2023-04-08T02:56:08;11.20;99.90
22130;DHT22;11231;50.746;4.272;2023-04-08T02:58:34;11.20;99.90
22130;DHT22;11231;50.746;4.272;2023-04-08T03:00:59;11.30;99.90
22130;DHT22;11231;50.746;4.272;2023-04-08T03:03:25;11.30;99.90
22130;DHT22;11231;50.746;4.272;2023-04-08T03:05:58;11.30;99.90
22130;DHT22;11231;50.746;4.272;2023-04-08T03:08:24;11.30;99.90
22130;DHT22;11231;50.746;4.272;2023-04-08T03:10:50;11.40;99.90
22130;DHT22;11231;50.746;4.272;2023-04-08T03:13:16;11.40;99.90
22130;DHT22;11231;50.746;4.272;2023-04-08T03:15:42;11.40;99.90
22130;DHT22;11231;50.746;4.272;2023-04-08T03:18:07;11.40;99.90
22130;DHT22;11231;50.746;4.272;2023-04-08T03:20:33;11.30;99.90
22130;DHT22;11231;50.746;4.272;2023-04-08T03:22:59;11.30;99.90
22130;DHT22;11231;50.746;4.272;2023-04-08T03:25:25;11.30;99.90
22130;DHT22;11231;50.746;4.272;2023-04-08T03:27:51;11.40;99.90
22130;DHT22;11231;50.746;4.272;2023-04-08T03:30:16;11.40;99.90
22130;DHT22;11231;50.746;4.272;2023-04-08T03:32:42;11.40;99.90
22130;DHT22;11231;50.746;4.272;2023-04-08T03:35:08;11.30;99.90
22130;DHT22;11231;50.746;4.272;2023-04-08T03:37:34;11.30;99.90
22130;DHT22;11231;50.746;4.272;2023-04-08T03:39:59;11.20;99.90
22130;DHT22;11231;50.746;4.272;2023-04-08T03:42:25;11.20;99.90
22130;DHT22;11231;50.746;4.272;2023-04-08T03:44:51;11.30;99.90
22130;DHT22;11231;50.746;4.272;2023-04-08T03:47:17;11.40;99.90
22130;DHT22;11231;50.746;4.272;2023-04-08T03:49:43;11.40;99.90
22130;DHT22;11231;50.746;4.272;2023-04-08T03:52:08;11.40;99.90
22130;DHT22;11231;50.746;4.272;2023-04-08T03:54:34;11.40;99.90
22130;DHT22;11231;50.746;4.272;2023-04-08T03:57:00;11.30;99.90
22130;DHT22;11231;50.746;4.272;2023-04-08T03:59:26;11.20;99.90
22130;DHT22;11231;50.746;4.272;2023-04-08T04:01:51;11.20;99.90
22130;DHT22;11231;50.746;4.272;2023-04-08T04:04:18;11.20;99.90
22130;DHT22;11231;50.746;4.272;2023-04-08T04:06:44;11.30;99.90
22130;DHT22;11231;50.746;4.272;2023-04-08T04:09:09;11.30;99.90
22130;DHT22;11231;50.746;4.272;2023-04-08T04:11:36;11.30;99.90
22130;DHT22;11231;50.746;4.272;2023-04-08T04:14:02;11.30;99.90
22130;DHT22;11231;50.746;4.272;2023-04-08T04:16:27;11.20;99.90
22130;DHT22;11231;50.746;4.272;2023-04-08T04:18:53;11.20;99.90
22130;DHT22;11231;50.746;4.272;2023-04-08T04:21:19;11.20;99.90
22130;DHT22;11231;50.746;4.272;2023-04-08T04:23:45;11.20;99.90
22130;DHT22;11231;50.746;4.272;2023-04-08T04:26:10;11.30;99.90
22130;DHT22;11231;50.746;4.272;2023-04-08T04:28:37;11.30;99.90
22130;DHT22;11231;50.746;4.272;2023-04-08T04:31:03;11.30;99.90
22130;DHT22;11231;50.746;4.272;2023-04-08T04:33:30;11.30;99.90
22130;DHT22;11231;50.746;4.272;2023-04-08T04:35:56;11.30;99.90
22130;DHT22;11231;50.746;4.272;2023-04-08T04:38:21;11.20;99.90
22130;DHT22;11231;50.746;4.272;2023-04-08T04:40:47;11.20;99.90
22130;DHT22;11231;50.746;4.272;2023-04-08T04:43:13;11.10;99.90
22130;DHT22;11231;50.746;4.272;2023-04-08T04:45:38;11.00;99.90
22130;DHT22;11231;50.746;4.272;2023-04-08T04:48:04;11.00;99.90
22130;DHT22;11231;50.746;4.272;2023-04-08T04:50:30;11.00;99.90
22130;DHT22;11231;50.746;4.272;2023-04-08T04:52:56;11.10;99.90
22130;DHT22;11231;50.746;4.272;2023-04-08T04:55:21;11.20;99.90
22130;DHT22;11231;50.746;4.272;2023-04-08T04:57:48;11.20;99.90
22130;DHT22;11231;50.746;4.272;2023-04-08T05:00:14;11.30;99.90
22130;DHT22;11231;50.746;4.272;2023-04-08T05:02:40;11.20;99.90
22130;DHT22;11231;50.746;4.272;2023-04-08T05:05:06;11.10;99.90
22130;DHT22;11231;50.746;4.272;2023-04-08T05:07:36;11.10;99.90
22130;DHT22;11231;50.746;4.272;2023-04-08T05:10:02;11.00;99.90
22130;DHT22;11231;50.746;4.272;2023-04-08T05:12:28;11.00;99.90
22130;DHT22;11231;50.746;4.272;2023-04-08T05:14:54;11.00;99.90
22130;DHT22;11231;50.746;4.272;2023-04-08T05:17:20;11.00;99.90
22130;DHT22;11231;50.746;4.272;2023-04-08T05:19:45;11.10;99.90
22130;DHT22;11231;50.746;4.272;2023-04-08T05:22:11;11.10;99.90
22130;DHT22;11231;50.746;4.272;2023-04-08T05:24:37;11.10;99.90
22130;DHT22;11231;50.746;4.272;2023-04-08T05:27:02;11.20;99.90
22130;DHT22;11231;50.746;4.272;2023-04-08T05:29:28;11.20;99.90
22130;DHT22;11231;50.746;4.272;2023-04-08T05:31:54;11.20;99.90
22130;DHT22;11231;50.746;4.272;2023-04-08T05:34:20;11.20;99.90
22130;DHT22;11231;50.746;4.272;2023-04-08T05:36:49;11.20;99.90
22130;DHT22;11231;50.746;4.272;2023-04-08T05:39:19;11.10;99.90
22130;DHT22;11231;50.746;4.272;2023-04-08T05:41:45;11.10;99.90
22130;DHT22;11231;50.746;4.272;2023-04-08T05:44:12;11.20;99.90
22130;DHT22;11231;50.746;4.272;2023-04-08T05:46:38;11.20;99.90
22130;DHT22;11231;50.746;4.272;2023-04-08T05:49:04;11.10;99.90
22130;DHT22;11231;50.746;4.272;2023-04-08T05:51:29;11.10;99.90
22130;DHT22;11231;50.746;4.272;2023-04-08T05:53:55;11.10;99.90
22130;DHT22;11231;50.746;4.272;2023-04-08T05:56:21;11.10;99.90
22130;DHT22;11231;50.746;4.272;2023-04-08T05:58:47;11.20;99.90
22130;DHT22;11231;50.746;4.272;2023-04-08T06:01:12;11.30;99.90
22130;DHT22;11231;50.746;4.272;2023-04-08T06:03:38;11.20;99.90
22130;DHT22;11231;50.746;4.272;2023-04-08T06:06:09;11.30;99.90
22130;DHT22;11231;50.746;4.272;2023-04-08T06:08:36;11.30;99.90
22130;DHT22;11231;50.746;4.272;2023-04-08T06:11:02;11.30;99.90
22130;DHT22;11231;50.746;4.272;2023-04-08T06:13:30;11.40;99.90
22130;DHT22;11231;50.746;4.272;2023-04-08T06:15:56;11.40;99.90
22130;DHT22;11231;50.746;4.272;2023-04-08T06:18:22;11.50;99.90
22130;DHT22;11231;50.746;4.272;2023-04-08T06:20:47;11.60;99.90
22130;DHT22;11231;50.746;4.272;2023-04-08T06:23:13;11.60;99.90
22130;DHT22;11231;50.746;4.272;2023-04-08T06:25:39;11.40;99.90
22130;DHT22;11231;50.746;4.272;2023-04-08T06:28:04;11.30;99.90
22130;DHT22;11231;50.746;4.272;2023-04-08T06:30:30;11.20;99.90
22130;DHT22;11231;50.746;4.272;2023-04-08T06:32:56;11.40;99.90
22130;DHT22;11231;50.746;4.272;2023-04-08T06:35:21;11.50;99.90
22130;DHT22;11231;50.746;4.272;2023-04-08T06:37:47;11.30;99.90
22130;DHT22;11231;50.746;4.272;2023-04-08T06:40:13;11.30;99.90
22130;DHT22;11231;50.746;4.272;2023-04-08T06:42:39;11.20;99.90
22130;DHT22;11231;50.746;4.272;2023-04-08T06:45:17;11.20;99.90
22130;DHT22;11231;50.746;4.272;2023-04-08T06:47:43;11.10;99.90
22130;DHT22;11231;50.746;4.272;2023-04-08T06:50:09;11.20;99.90
22130;DHT22;11231;50.746;4.272;2023-04-08T06:52:35;11.40;99.90
22130;DHT22;11231;50.746;4.272;2023-04-08T06:55:00;11.40;99.90
22130;DHT22;11231;50.746;4.272;2023-04-08T06:57:26;11.40;99.90
22130;DHT22;11231;50.746;4.272;2023-04-08T06:59:52;11.40;99.90
22130;DHT22;11231;50.746;4.272;2023-04-08T07:02:18;11.30;99.90
22130;DHT22;11231;50.746;4.272;2023-04-08T07:04:43;11.30;99.90
22130;DHT22;11231;50.746;4.272;2023-04-08T07:07:09;11.30;99.90
22130;DHT22;11231;50.746;4.272;2023-04-08T07:09:35;11.30;99.90
22130;DHT22;11231;50.746;4.272;2023-04-08T07:12:02;11.30;99.90
22130;DHT22;11231;50.746;4.272;2023-04-08T07:14:29;11.40;99.90
22130;DHT22;11231;50.746;4.272;2023-04-08T07:16:54;11.20;99.90
22130;DHT22;11231;50.746;4.272;2023-04-08T07:19:21;11.40;99.90
22130;DHT22;11231;50.746;4.272;2023-04-08T07:21:48;11.50;99.90
22130;DHT22;11231;50.746;4.272;2023-04-08T07:24:14;11.40;99.90
22130;DHT22;11231;50.746;4.272;2023-04-08T07:26:40;11.50;99.90
22130;DHT22;11231;50.746;4.272;2023-04-08T07:29:06;11.70;99.90
22130;DHT22;11231;50.746;4.272;2023-04-08T07:31:32;11.90;99.90
22130;DHT22;11231;50.746;4.272;2023-04-08T07:33:58;12.00;99.90
22130;DHT22;11231;50.746;4.272;2023-04-08T07:36:23;12.30;99.90
22130;DHT22;11231;50.746;4.272;2023-04-08T07:38:49;12.30;99.90
22130;DHT22;11231;50.746;4.272;2023-04-08T07:41:15;12.40;99.90
22130;DHT22;11231;50.746;4.272;2023-04-08T07:43:41;12.50;99.90
22130;DHT22;11231;50.746;4.272;2023-04-08T07:46:07;12.60;99.90
22130;DHT22;11231;50.746;4.272;2023-04-08T07:48:33;12.90;99.90
22130;DHT22;11231;50.746;4.272;2023-04-08T07:51:04;13.20;99.90
22130;DHT22;11231;50.746;4.272;2023-04-08T07:53:31;13.40;99.90
22130;DHT22;11231;50.746;4.272;2023-04-08T07:55:58;13.40;99.90
22130;DHT22;11231;50.746;4.272;2023-04-08T07:58:23;13.00;99.90
22130;DHT22;11231;50.746;4.272;2023-04-08T08:00:49;13.00;99.90
22130;DHT22;11231;50.746;4.272;2023-04-08T08:03:16;13.30;99.90
22130;DHT22;11231;50.746;4.272;2023-04-08T08:05:41;13.50;99.90
22130;DHT22;11231;50.746;4.272;2023-04-08T08:08:07;13.70;99.90
22130;DHT22;11231;50.746;4.272;2023-04-08T08:10:36;13.90;99.90
22130;DHT22;11231;50.746;4.272;2023-04-08T08:13:02;13.50;99.90
22130;DHT22;11231;50.746;4.272;2023-04-08T08:15:27;13.30;99.90
22130;DHT22;11231;50.746;4.272;2023-04-08T08:17:53;13.40;99.90
22130;DHT22;11231;50.746;4.272;2023-04-08T08:20:19;13.40;99.90
22130;DHT22;11231;50.746;4.272;2023-04-08T08:22:45;13.30;99.90
22130;DHT22;11231;50.746;4.272;2023-04-08T08:25:10;13.40;99.90
22130;DHT22;11231;50.746;4.272;2023-04-08T08:27:36;13.10;99.90
22130;DHT22;11231;50.746;4.272;2023-04-08T08:30:02;13.20;99.90
22130;DHT22;11231;50.746;4.272;2023-04-08T08:32:28;13.40;99.90
22130;DHT22;11231;50.746;4.272;2023-04-08T08:34:54;13.00;99.90
22130;DHT22;11231;50.746;4.272;2023-04-08T08:37:20;12.80;99.90
22130;DHT22;11231;50.746;4.272;2023-04-08T08:39:45;12.70;99.90
22130;DHT22;11231;50.746;4.272;2023-04-08T08:42:21;12.80;99.90
22130;DHT22;11231;50.746;4.272;2023-04-08T08:44:47;13.00;99.90
22130;DHT22;11231;50.746;4.272;2023-04-08T08:47:14;12.90;99.90
22130;DHT22;11231;50.746;4.272;2023-04-08T08:49:40;12.90;99.90
22130;DHT22;11231;50.746;4.272;2023-04-08T08:52:06;12.70;99.90
22130;DHT22;11231;50.746;4.272;2023-04-08T08:54:32;12.90;99.90
22130;DHT22;11231;50.746;4.272;2023-04-08T08:56:58;13.10;99.90
22130;DHT22;11231;50.746;4.272;2023-04-08T08:59:23;13.20;99.90
22130;DHT22;11231;50.746;4.272;2023-04-08T09:01:49;13.30;99.90
22130;DHT22;11231;50.746;4.272;2023-04-08T09:04:16;13.20;99.90
22130;DHT22;11231;50.746;4.272;2023-04-08T09:06:45;13.30;99.90
22130;DHT22;11231;50.746;4.272;2023-04-08T09:09:11;13.10;99.90
22130;DHT22;11231;50.746;4.272;2023-04-08T09:11:46;12.90;99.90
22130;DHT22;11231;50.746;4.272;2023-04-08T09:14:20;12.60;99.90
22130;DHT22;11231;50.746;4.272;2023-04-08T09:16:45;12.70;99.90
22130;DHT22;11231;50.746;4.272;2023-04-08T09:19:11;12.90;99.90
22130;DHT22;11231;50.746;4.272;2023-04-08T09:21:38;13.20;99.90
22130;DHT22;11231;50.746;4.272;2023-04-08T09:24:06;13.30;99.90
22130;DHT22;11231;50.746;4.272;2023-04-08T09:26:32;13.50;99.90
22130;DHT22;11231;50.746;4.272;2023-04-08T09:29:04;13.50;99.90
22130;DHT22;11231;50.746;4.272;2023-04-08T09:31:36;13.50;99.90
22130;DHT22;11231;50.746;4.272;2023-04-08T09:34:14;13.70;99.90
22130;DHT22;11231;50.746;4.272;2023-04-08T09:36:46;13.80;99.90
22130;DHT22;11231;50.746;4.272;2023-04-08T09:39:14;13.80;99.90
22130;DHT22;11231;50.746;4.272;2023-04-08T09:41:40;13.60;99.90
22130;DHT22;11231;50.746;4.272;2023-04-08T09:44:09;13.40;99.90
22130;DHT22;11231;50.746;4.272;2023-04-08T09:49:34;13.50;99.90
22130;DHT22;11231;50.746;4.272;2023-04-08T09:52:20;13.60;99.90
22130;DHT22;11231;50.746;4.272;2023-04-08T09:55:03;13.30;99.90
22130;DHT22;11231;50.746;4.272;2023-04-08T09:57:39;13.10;99.90
22130;DHT22;11231;50.746;4.272;2023-04-08T10:00:16;12.90;99.90
22130;DHT22;11231;50.746;4.272;2023-04-08T10:02:59;12.80;99.90
22130;DHT22;11231;50.746;4.272;2023-04-08T10:05:26;12.70;99.90
22130;DHT22;11231;50.746;4.272;2023-04-08T10:07:52;13.00;99.90
22130;DHT22;11231;50.746;4.272;2023-04-08T10:10:20;13.20;99.90
22130;DHT22;11231;50.746;4.272;2023-04-08T10:12:47;13.40;99.90
22130;DHT22;11231;50.746;4.272;2023-04-08T10:23:05;14.30;99.90
22130;DHT22;11231;50.746;4.272;2023-04-08T10:25:36;14.60;99.90
22130;DHT22;11231;50.746;4.272;2023-04-08T10:28:22;15.10;99.90
22130;DHT22;11231;50.746;4.272;2023-04-08T10:30:49;15.80;99.90
22130;DHT22;11231;50.746;4.272;2023-04-08T10:35:44;17.00;99.90
22130;DHT22;11231;50.746;4.272;2023-04-08T10:38:15;17.90;99.90
22130;DHT22;11231;50.746;4.272;2023-04-08T10:40:42;18.90;99.90
22130;DHT22;11231;50.746;4.272;2023-04-08T10:43:09;20.40;99.90
22130;DHT22;11231;50.746;4.272;2023-04-08T10:45:36;23.10;99.90
22130;DHT22;11231;50.746;4.272;2023-04-08T10:48:18;24.10;99.90
22130;DHT22;11231;50.746;4.272;2023-04-08T10:51:01;23.60;99.90
22130;DHT22;11231;50.746;4.272;2023-04-08T10:56:22;21.10;99.90
22130;DHT22;11231;50.746;4.272;2023-04-08T10:58:51;19.60;99.90
22130;DHT22;11231;50.746;4.272;2023-04-08T11:01:17;18.70;99.90
22130;DHT22;11231;50.746;4.272;2023-04-08T11:03:43;18.00;99.90
22130;DHT22;11231;50.746;4.272;2023-04-08T11:06:10;17.30;99.90
22130;DHT22;11231;50.746;4.272;2023-04-08T11:08:36;16.70;99.90
22130;DHT22;11231;50.746;4.272;2023-04-08T11:11:03;16.40;99.90
22130;DHT22;11231;50.746;4.272;2023-04-08T11:13:34;16.10;99.90
22130;DHT22;11231;50.746;4.272;2023-04-08T11:16:02;15.80;99.90
22130;DHT22;11231;50.746;4.272;2023-04-08T11:18:29;15.50;99.90
22130;DHT22;11231;50.746;4.272;2023-04-08T11:20:56;15.00;99.90
22130;DHT22;11231;50.746;4.272;2023-04-08T11:23:25;14.50;99.90
22130;DHT22;11231;50.746;4.272;2023-04-08T11:25:51;14.20;99.90
22130;DHT22;11231;50.746;4.272;2023-04-08T11:28:18;14.40;99.90
22130;DHT22;11231;50.746;4.272;2023-04-08T11:30:44;14.50;99.90
22130;DHT22;11231;50.746;4.272;2023-04-08T11:33:12;14.40;99.90
22130;DHT22;11231;50.746;4.272;2023-04-08T11:35:41;14.60;99.90
22130;DHT22;11231;50.746;4.272;2023-04-08T11:38:08;14.60;99.90
22130;DHT22;11231;50.746;4.272;2023-04-08T11:40:34;14.70;99.90
22130;DHT22;11231;50.746;4.272;2023-04-08T11:43:08;14.50;99.90
22130;DHT22;11231;50.746;4.272;2023-04-08T11:45:37;14.50;99.90
22130;DHT22;11231;50.746;4.272;2023-04-08T11:48:15;14.60;99.90
22130;DHT22;11231;50.746;4.272;2023-04-08T11:50:41;14.90;99.90
22130;DHT22;11231;50.746;4.272;2023-04-08T11:53:18;15.20;99.90
22130;DHT22;11231;50.746;4.272;2023-04-08T11:55:44;15.40;99.90
22130;DHT22;11231;50.746;4.272;2023-04-08T11:58:10;15.70;99.90
22130;DHT22;11231;50.746;4.272;2023-04-08T12:00:36;16.00;99.90
22130;DHT22;11231;50.746;4.272;2023-04-08T12:03:01;16.30;99.90
22130;DHT22;11231;50.746;4.272;2023-04-08T12:05:27;16.60;99.90
22130;DHT22;11231;50.746;4.272;2023-04-08T12:07:53;16.90;99.90
22130;DHT22;11231;50.746;4.272;2023-04-08T12:10:18;17.20;99.90
22130;DHT22;11231;50.746;4.272;2023-04-08T12:12:45;17.30;99.90
22130;DHT22;11231;50.746;4.272;2023-04-08T12:15:10;17.30;99.90
22130;DHT22;11231;50.746;4.272;2023-04-08T12:17:36;17.50;99.90
22130;DHT22;11231;50.746;4.272;2023-04-08T12:20:06;17.90;99.90
22130;DHT22;11231;50.746;4.272;2023-04-08T12:22:32;18.10;99.90
22130;DHT22;11231;50.746;4.272;2023-04-08T12:24:58;17.80;99.90
22130;DHT22;11231;50.746;4.272;2023-04-08T12:27:23;17.90;99.90
22130;DHT22;11231;50.746;4.272;2023-04-08T12:29:49;17.70;99.90
22130;DHT22;11231;50.746;4.272;2023-04-08T12:32:16;17.60;99.90
22130;DHT22;11231;50.746;4.272;2023-04-08T12:34:42;17.90;99.90
22130;DHT22;11231;50.746;4.272;2023-04-08T12:37:07;18.00;99.90
22130;DHT22;11231;50.746;4.272;2023-04-08T12:39:34;17.70;99.90
22130;DHT22;11231;50.746;4.272;2023-04-08T12:42:00;17.70;99.90
22130;DHT22;11231;50.746;4.272;2023-04-08T12:44:25;17.50;99.90
22130;DHT22;11231;50.746;4.272;2023-04-08T12:46:51;17.20;99.90
22130;DHT22;11231;50.746;4.272;2023-04-08T12:49:17;17.20;99.90
22130;DHT22;11231;50.746;4.272;2023-04-08T12:51:42;17.00;99.90
22130;DHT22;11231;50.746;4.272;2023-04-08T12:54:08;16.70;99.90
22130;DHT22;11231;50.746;4.272;2023-04-08T12:56:34;16.80;99.90
22130;DHT22;11231;50.746;4.272;2023-04-08T12:59:00;16.80;99.90
22130;DHT22;11231;50.746;4.272;2023-04-08T13:01:26;16.50;99.90
22130;DHT22;11231;50.746;4.272;2023-04-08T13:03:52;16.40;99.90
22130;DHT22;11231;50.746;4.272;2023-04-08T13:06:17;16.20;99.90
22130;DHT22;11231;50.746;4.272;2023-04-08T13:08:43;16.10;99.90
22130;DHT22;11231;50.746;4.272;2023-04-08T13:11:09;16.10;99.90
22130;DHT22;11231;50.746;4.272;2023-04-08T13:13:35;15.90;99.90
22130;DHT22;11231;50.746;4.272;2023-04-08T13:16:01;16.20;99.90
22130;DHT22;11231;50.746;4.272;2023-04-08T13:18:26;16.40;99.90
22130;DHT22;11231;50.746;4.272;2023-04-08T13:20:52;16.40;99.90
22130;DHT22;11231;50.746;4.272;2023-04-08T13:23:19;16.50;99.90
22130;DHT22;11231;50.746;4.272;2023-04-08T13:25:45;16.70;99.90
22130;DHT22;11231;50.746;4.272;2023-04-08T13:28:11;16.80;99.90
22130;DHT22;11231;50.746;4.272;2023-04-08T13:30:37;16.90;99.90
22130;DHT22;11231;50.746;4.272;2023-04-08T13:33:03;17.10;99.90
22130;DHT22;11231;50.746;4.272;2023-04-08T13:35:29;17.20;99.90
22130;DHT22;11231;50.746;4.272;2023-04-08T13:37:54;17.00;99.90
22130;DHT22;11231;50.746;4.272;2023-04-08T13:40:20;16.90;99.90
22130;DHT22;11231;50.746;4.272;2023-04-08T13:42:46;16.80;99.90
22130;DHT22;11231;50.746;4.272;2023-04-08T13:45:13;16.70;99.90
22130;DHT22;11231;50.746;4.272;2023-04-08T13:47:39;16.90;99.90
22130;DHT22;11231;50.746;4.272;2023-04-08T13:50:08;17.00;99.90
22130;DHT22;11231;50.746;4.272;2023-04-08T13:52:33;17.20;99.90
22130;DHT22;11231;50.746;4.272;2023-04-08T13:54:59;17.70;99.90
22130;DHT22;11231;50.746;4.272;2023-04-08T13:57:25;18.00;99.90
22130;DHT22;11231;50.746;4.272;2023-04-08T13:59:50;18.00;99.90
22130;DHT22;11231;50.746;4.272;2023-04-08T14:02:16;18.00;99.90
22130;DHT22;11231;50.746;4.272;2023-04-08T14:04:42;17.60;99.90
22130;DHT22;11231;50.746;4.272;2023-04-08T14:07:10;17.70;99.90
22130;DHT22;11231;50.746;4.272;2023-04-08T14:09:36;17.50;99.90
22130;DHT22;11231;50.746;4.272;2023-04-08T14:12:02;16.90;99.90
22130;DHT22;11231;50.746;4.272;2023-04-08T14:14:27;16.80;99.90
22130;DHT22;11231;50.746;4.272;2023-04-08T14:16:53;16.50;99.90
22130;DHT22;11231;50.746;4.272;2023-04-08T14:19:19;16.60;99.90
22130;DHT22;11231;50.746;4.272;2023-04-08T14:21:44;16.60;99.90
22130;DHT22;11231;50.746;4.272;2023-04-08T14:24:10;16.70;99.90
22130;DHT22;11231;50.746;4.272;2023-04-08T14:26:36;16.80;99.90
22130;DHT22;11231;50.746;4.272;2023-04-08T14:29:03;16.80;99.90
22130;DHT22;11231;50.746;4.272;2023-04-08T14:31:30;16.60;99.90
22130;DHT22;11231;50.746;4.272;2023-04-08T14:33:56;16.60;99.90
22130;DHT22;11231;50.746;4.272;2023-04-08T14:36:22;16.40;99.90
22130;DHT22;11231;50.746;4.272;2023-04-08T14:38:49;16.40;99.90
22130;DHT22;11231;50.746;4.272;2023-04-08T14:41:15;16.30;99.90
22130;DHT22;11231;50.746;4.272;2023-04-08T14:43:41;16.50;99.90
22130;DHT22;11231;50.746;4.272;2023-04-08T14:46:06;16.50;99.90
22130;DHT22;11231;50.746;4.272;2023-04-08T14:48:32;16.50;99.90
22130;DHT22;11231;50.746;4.272;2023-04-08T14:50:58;16.70;99.90
22130;DHT22;11231;50.746;4.272;2023-04-08T14:53:24;16.60;99.90
22130;DHT22;11231;50.746;4.272;2023-04-08T14:55:50;16.70;99.90
22130;DHT22;11231;50.746;4.272;2023-04-08T14:58:16;16.90;99.90
22130;DHT22;11231;50.746;4.272;2023-04-08T15:00:43;17.10;99.90
22130;DHT22;11231;50.746;4.272;2023-04-08T15:03:11;17.30;99.90
22130;DHT22;11231;50.746;4.272;2023-04-08T15:05:37;17.40;99.90
22130;DHT22;11231;50.746;4.272;2023-04-08T15:08:03;17.70;99.90
22130;DHT22;11231;50.746;4.272;2023-04-08T15:10:28;17.80;99.90
22130;DHT22;11231;50.746;4.272;2023-04-08T15:12:54;17.90;99.90
22130;DHT22;11231;50.746;4.272;2023-04-08T15:15:20;17.70;99.90
22130;DHT22;11231;50.746;4.272;2023-04-08T15:17:46;17.50;99.90
22130;DHT22;11231;50.746;4.272;2023-04-08T15:20:12;17.40;99.90
22130;DHT22;11231;50.746;4.272;2023-04-08T15:22:38;17.30;99.90
22130;DHT22;11231;50.746;4.272;2023-04-08T15:25:07;16.80;99.90
22130;DHT22;11231;50.746;4.272;2023-04-08T15:27:33;16.60;99.90
22130;DHT22;11231;50.746;4.272;2023-04-08T15:30:00;16.40;99.90
22130;DHT22;11231;50.746;4.272;2023-04-08T15:32:26;16.30;99.90
22130;DHT22;11231;50.746;4.272;2023-04-08T15:34:52;16.40;99.90
22130;DHT22;11231;50.746;4.272;2023-04-08T15:37:17;16.30;99.90
22130;DHT22;11231;50.746;4.272;2023-04-08T15:39:43;16.20;99.90
22130;DHT22;11231;50.746;4.272;2023-04-08T15:42:09;16.20;99.90
22130;DHT22;11231;50.746;4.272;2023-04-08T15:44:35;16.20;99.90
22130;DHT22;11231;50.746;4.272;2023-04-08T15:47:00;16.20;99.90